• Join FlightAware (Why Join?)
  • Login
  • US Flag 
01:30AM EDT


 

Airport Tracker/Info


-or-


 

Live Flight TrackerFlight Track Log ✈ DAL6147 ✈ 08-May-2013 ✈ KDTW - KCHS

Flight Track Log - Related Links

Times and Time Zones

All times are in EDT time to prevent confusion due to time zone crossing. See the DAL6147 flight status page for this flight to view local times or setup timezone preferences in your user account.

Time Position Orientation Groundspeed Altitude Reporting Facility
EDT Latitude Longitude Course Direction KTS MPH feet Rate Location/Type
02:03PM 42.2356 -83.3317 180° South 159 183 1,400  Level Cleveland Center
02:04PM 42.3103 -83.3489 350° North 201 231 4,900 2,340 Climbing Cleveland Center
02:05PM 42.3542 -83.4239 308° West 244 281 7,700 2,340 Climbing Cleveland Center
02:06PM 41.7904 -83.1827 180° South  Level Estimated
02:06PM 42.3772 -83.5008 292° West 243 280 10,000  Level Cleveland Center
02:07PM 41.6848 -83.1404 180° South  Level Estimated
02:07PM 42.3706 -83.5231 248° West 274 315 10,000  Level Cleveland Center
02:08PM 41.5793 -83.0983 180° South  Level Estimated
02:08PM 42.3325 -83.6167 241° Southwest 310 357 12,200  Level Cleveland Center
02:09PM 42.2631 -83.6442 196° South 291 335 13,300 1,380 Climbing Cleveland Center
02:10PM 42.1789 -83.6008 159° South 270 311 15,000 1,500 Climbing Cleveland Center
02:11PM 42.0883 -83.5547 159° South 306 352 16,400 1,440 Climbing Cleveland Center
02:12PM 41.9919 -83.5669 185° South 337 388 18,000 1,380 Climbing Cleveland Center
02:13PM 41.8933 -83.5931 191° South 352 405 19,200 1,200 Climbing Cleveland Center
02:14PM 41.7883 -83.6244 193° South 373 429 20,400 1,200 Climbing Cleveland Center
02:15PM 41.6811 -83.6556 192° South 388 447 21,600 1,200 Climbing Cleveland Center
02:16PM 41.5697 -83.6864 192° South 396 456 22,900 1,320 Climbing Cleveland Center
02:17PM 41.4583 -83.7169 192° South 401 461 24,300 1,380 Climbing Cleveland Center
02:18PM 41.3492 -83.7475 192° South 406 467 25,700 1,380 Climbing Cleveland Center
02:20PM 41.1436 -83.8067 192° South 406 467 28,300 1,320 Climbing Indianapolis Center
02:21PM 41.0331 -83.8364 191° South 399 459 29,700 1,200 Climbing Indianapolis Center
02:22PM 40.9236 -83.8672 192° South 398 458 30,800 1,020 Climbing Indianapolis Center
02:23PM 40.7925 -83.9039 192° South 408 470 31,900 960 Climbing Indianapolis Center
02:24PM 40.6756 -83.9358 192° South 424 488 32,900 960 Climbing Indianapolis Center
02:25PM 40.5572 -83.9683 192° South 429 494 33,900 480 Climbing Indianapolis Center
02:26PM 40.4364 -84.0022 192° South 440 506 34,000  Climbing Indianapolis Center
02:27PM 40.3136 -84.0367 192° South 446 513 34,000  Level Indianapolis Center
02:28PM 40.1886 -84.0597 188° South 451 519 34,000  Level Indianapolis Center
02:29PM 40.0650 -84.0808 187° South 448 516 34,000  Level Indianapolis Center
02:30PM 39.9217 -84.1047 187° South 446 513 34,000  Level Indianapolis Center
02:31PM 39.7983 -84.1244 187° South 445 512 34,000  Level Indianapolis Center
02:32PM 39.6753 -84.1456 188° South 444 511 34,000  Level Indianapolis Center
02:33PM 39.5533 -84.1656 187° South 442 509 34,000  Level Indianapolis Center
02:34PM 39.4306 -84.1858 187° South 440 506 34,000  Level Indianapolis Center
02:35PM 39.3072 -84.2058 187° South 442 509 34,000  Level Indianapolis Center
02:36PM 39.1847 -84.2250 187° South 442 509 34,000  Level Indianapolis Center
02:37PM 39.0419 -84.2497 188° South 441 507 34,000  Level Indianapolis Center
02:38PM 38.9181 -84.2689 187° South 443 510 34,000  Level Indianapolis Center
02:39PM 38.7956 -84.2892 187° South 441 507 34,000  Level Indianapolis Center
02:40PM 38.6731 -84.3067 186° South 440 506 34,000 240 Level Indianapolis Center
02:41PM 38.5406 -84.2950 176° South 445 512 34,500 480 Climbing Indianapolis Center
02:42PM 38.4164 -84.2769 174° South 446 513 35,000 240 Climbing Indianapolis Center
02:43PM 38.2922 -84.2572 173° South 452 520 35,000  Level Indianapolis Center
02:44PM 38.1667 -84.2386 173° South 454 522 35,000  Level Indianapolis Center
02:45PM 38.0222 -84.2156 173° South 449 517 35,000  Level Indianapolis Center
02:46PM 37.8961 -84.1947 173° South 454 522 35,000  Level Indianapolis Center
02:47PM 37.7706 -84.1753 173° South 455 524 35,000  Level Indianapolis Center
02:48PM 37.6447 -84.1547 173° South 456 525 35,000  Level Indianapolis Center
02:49PM 37.5194 -84.1356 173° South 454 522 35,000  Level Indianapolis Center
02:51PM 37.3928 -84.1169 173° South 456 525 35,000  Level Indianapolis Center
02:52PM 37.2458 -84.0947 173° South 457 526 35,000  Level Indianapolis Center
02:53PM 37.1194 -84.0753 173° South 457 526 35,000  Level Indianapolis Center
02:54PM 36.9925 -84.0561 173° South 458 527 35,000  Level Indianapolis Center
02:55PM 36.8656 -84.0364 173° South 460 529 35,000  Level Indianapolis Center
02:56PM 36.7381 -84.0181 173° South 461 531 35,000  Level Indianapolis Center
02:57PM 36.5911 -83.9956 173° South 458 527 35,000  Level Indianapolis Center
02:57PM 36.5172 -83.9869 175° South 465 535 35,000  Level Atlanta Center
02:58PM 36.3900 -83.9692 174° South 460 529 35,000  Level Atlanta Center
02:59PM 36.2647 -83.9511 173° South 460 529 35,000  Level Atlanta Center
03:00PM 36.1375 -83.9308 173° South 465 535 35,000  Level Atlanta Center
03:01PM 36.0103 -83.9103 173° South 465 535 35,000  Level Atlanta Center
03:02PM 35.8872 -83.8797 169° South 460 529 35,000  Level Atlanta Center
03:03PM 35.7806 -83.7956 147° Southeast 445 512 35,000  Level Atlanta Center
03:04PM 35.6719 -83.7089 147° Southeast 451 519 35,000  Level Atlanta Center
03:05PM 35.5672 -83.6225 146° Southeast 456 525 35,000  Level Atlanta Center
03:06PM 35.4606 -83.5364 147° Southeast 456 525 35,000  Level Atlanta Center
03:07PM 35.3581 -83.4556 147° Southeast 456 525 35,000  Level Atlanta Center
03:08PM 35.2575 -83.3750 147° Southeast 451 519 35,000  Level Atlanta Center
03:09PM 35.1694 -83.3044 147° Southeast 437 503 35,000  Level Atlanta Center
03:10PM 35.0731 -83.2292 147° Southeast 426 490 35,000  Level Atlanta Center
03:11PM 34.9786 -83.1542 147° Southeast 421 484 35,000  Level Atlanta Center
03:12PM 34.8694 -83.0667 147° Southeast 421 484 35,000  Level Atlanta Center
03:13PM 34.7728 -82.9894 147° Southeast 421 484 35,000  Level Atlanta Center
03:14PM 34.6844 -82.9197 147° Southeast 420 483 35,000  Level Atlanta Center
03:15PM 34.5856 -82.8428 147° Southeast 431 496 35,000 -300 Level Atlanta Center
03:16PM 34.4783 -82.7586 147° Southeast 437 503 34,500 -780 Descending Atlanta Center
03:17PM 34.3775 -82.6797 147° Southeast 437 503 33,500 -960 Descending Atlanta Center
03:18PM 34.2783 -82.6008 147° Southeast 437 503 32,600 -1,140 Descending Atlanta Center
03:19PM 34.1708 -82.5197 148° Southeast 442 509 31,300 -1,260 Descending Atlanta Center
03:20PM 34.0633 -82.4364 147° Southeast 447 514 30,100 -660 Descending Atlanta Center
03:21PM 33.9475 -82.3511 149° Southeast 442 509 30,000 -60 Descending Atlanta Center
03:22PM 33.8608 -82.2803 146° Southeast 426 490 30,000 -120 Level Atlanta Center
03:24PM 33.6794 -82.0739 137° Southeast 424 488 29,800 -480 Descending Jacksonville Center
03:25PM 33.6367 -81.9372 111° Southeast 424 488 28,600 -1,260 Descending Jacksonville Center
03:26PM 33.5894 -81.7906 111° Southeast 441 507 27,300 -1,560 Descending Jacksonville Center
03:27PM 33.5486 -81.6564 110° East 441 507 25,500 -1,680 Descending Jacksonville Center
03:28PM 33.5056 -81.5175 110° East 436 502 24,000 -1,200 Descending Jacksonville Center
03:29PM 33.4622 -81.3814 111° Southeast 436 502 23,100 -540 Descending Jacksonville Center
03:30PM 33.4144 -81.2453 113° Southeast 436 502 23,000 -660 Descending Jacksonville Center
03:31PM 33.3731 -81.1092 110° East 436 502 21,800 -2,340 Descending Jacksonville Center
03:32PM 33.3294 -80.9783 112° Southeast 431 496 18,400 -3,540 Descending Jacksonville Center
03:33PM 33.2897 -80.8525 111° Southeast 426 490 14,800 -3,420 Descending Jacksonville Center
03:34PM 33.2503 -80.7342 112° Southeast 406 467 11,600 -2,340 Descending Jacksonville Center
03:35PM 33.2150 -80.6233 111° Southeast 382 440 10,200 -1,200 Descending Jacksonville Center
03:36PM 33.1842 -80.5297 111° Southeast 337 388 9,300 -1,380 Descending Jacksonville Center
03:37PM 33.1553 -80.4461 112° Southeast 296 341 7,500 -1,860 Descending Jacksonville Center
03:38PM 33.1328 -80.3575 107° East 279 321 5,600 -1,800 Descending Jacksonville Center
03:39PM 33.1164 -80.2736 103° East 268 308 3,900 -1,800 Descending Jacksonville Center
03:40PM 33.1019 -80.1872 101° East 263 303 2,000 -1,200 Descending Jacksonville Center
03:41PM 33.0836 -80.1086 106° East 257 296 1,600 -240 Descending Jacksonville Center
03:42PM 33.0694 -80.0322 102° East 246 283 1,600  Level Jacksonville Center